createdAt,value
2019-05-22T00:00:03.088Z,13.86
2019-05-22T00:00:08.091Z,14.22
2019-05-22T00:00:14.578Z,14.34
2019-05-22T00:00:18.092Z,12.68
2019-05-22T00:00:23.091Z,13.54
2019-05-22T00:00:28.092Z,14.12
2019-05-22T00:00:33.092Z,14.31
2019-05-22T00:00:38.092Z,14.00
2019-05-22T00:00:43.103Z,15.39
2019-05-22T00:00:48.096Z,14.73
2019-05-22T00:00:53.337Z,14.51
2019-05-22T00:00:58.351Z,12.73
2019-05-22T00:01:03.101Z,12.91
2019-05-22T00:01:08.099Z,13.91
2019-05-22T00:01:13.100Z,14.24
2019-05-22T00:01:18.102Z,13.89
2019-05-22T00:01:23.327Z,14.23
2019-05-22T00:01:28.591Z,11.92
2019-05-22T00:01:33.537Z,11.17
2019-05-22T00:01:38.106Z,10.92
2019-05-22T00:01:43.107Z,10.84
2019-05-22T00:01:48.107Z,10.81
2019-05-22T00:01:53.161Z,11.10
2019-05-22T00:01:58.108Z,10.90
2019-05-22T00:02:03.121Z,10.11
2019-05-22T00:02:08.121Z,8.15
2019-05-22T00:02:13.111Z,9.27
2019-05-22T00:02:18.114Z,10.30
2019-05-22T00:02:23.120Z,11.82
2019-05-22T00:02:28.118Z,11.89
2019-05-22T00:02:33.118Z,12.91
2019-05-22T00:02:38.116Z,13.91
2019-05-22T00:02:43.117Z,14.24
2019-05-22T00:02:48.119Z,14.35
2019-05-22T00:02:53.119Z,12.26
2019-05-22T00:02:58.134Z,12.00
2019-05-22T00:03:03.122Z,14.33
2019-05-22T00:03:08.123Z,15.67
2019-05-22T00:03:13.124Z,18.53
2019-05-22T00:03:18.366Z,21.06
2019-05-22T00:03:23.829Z,22.14
2019-05-22T00:03:28.228Z,22.07
2019-05-22T00:03:33.127Z,20.46
2019-05-22T00:03:38.128Z,18.81
2019-05-22T00:03:43.128Z,18.26
2019-05-22T00:03:48.129Z,15.96
2019-05-22T00:03:53.130Z,15.63
2019-05-22T00:03:58.132Z,14.80
2019-05-22T00:04:03.134Z,16.29
2019-05-22T00:04:08.134Z,16.06
2019-05-22T00:04:13.138Z,14.94
2019-05-22T00:04:18.137Z,13.56
2019-05-22T00:04:23.615Z,14.02
2019-05-22T00:04:28.138Z,15.40
2019-05-22T00:04:33.533Z,12.31
2019-05-22T00:04:38.139Z,13.05
2019-05-22T00:04:43.156Z,13.96
2019-05-22T00:04:48.152Z,16.68
2019-05-22T00:04:53.147Z,16.85
2019-05-22T00:04:58.327Z,16.22
2019-05-22T00:05:03.145Z,16.03
2019-05-22T00:05:08.145Z,14.93
2019-05-22T00:05:13.196Z,13.63
2019-05-22T00:05:18.150Z,12.56
2019-05-22T00:05:23.149Z,12.78
2019-05-22T00:05:28.149Z,11.74
2019-05-22T00:05:33.151Z,12.51
2019-05-22T00:05:38.152Z,11.36
2019-05-22T00:05:43.154Z,12.28
2019-05-22T00:05:48.153Z,13.71
2019-05-22T00:05:53.295Z,15.93
2019-05-22T00:05:58.155Z,17.03
2019-05-22T00:06:03.157Z,18.05
2019-05-22T00:06:08.157Z,16.35
2019-05-22T00:06:13.177Z,15.62
2019-05-22T00:06:18.159Z,14.80
2019-05-22T00:06:23.164Z,15.25
2019-05-22T00:06:28.202Z,16.52
2019-05-22T00:06:33.203Z,15.39
2019-05-22T00:06:38.205Z,12.97
2019-05-22T00:06:43.204Z,11.51
2019-05-22T00:06:48.363Z,12.33
2019-05-22T00:06:53.211Z,16.14
2019-05-22T00:06:58.210Z,16.73
2019-05-22T00:07:03.213Z,15.83
2019-05-22T00:07:08.242Z,16.27
2019-05-22T00:07:13.210Z,16.42
2019-05-22T00:07:18.213Z,15.06
2019-05-22T00:07:23.213Z,14.62
2019-05-22T00:07:28.213Z,13.18
2019-05-22T00:07:33.215Z,11.00
2019-05-22T00:07:38.216Z,10.87
2019-05-22T00:07:43.216Z,12.95
2019-05-22T00:07:48.217Z,13.63
2019-05-22T00:07:53.218Z,14.15
2019-05-22T00:07:58.219Z,13.60
2019-05-22T00:08:03.223Z,12.44
2019-05-22T00:08:08.226Z,13.04
2019-05-22T00:08:13.223Z,11.83
2019-05-22T00:08:18.223Z,9.96
2019-05-22T00:08:23.224Z,9.34
2019-05-22T00:08:28.277Z,10.32
2019-05-22T00:08:33.225Z,10.64
2019-05-22T00:08:38.254Z,10.75
2019-05-22T00:08:43.228Z,11.50
2019-05-22T00:08:48.228Z,11.03
2019-05-22T00:08:53.229Z,10.88
2019-05-22T00:08:58.231Z,10.10
2019-05-22T00:09:03.232Z,8.52
2019-05-22T00:09:08.232Z,8.93
2019-05-22T00:09:13.233Z,8.43
2019-05-22T00:09:18.234Z,7.97
2019-05-22T00:09:23.235Z,7.45
2019-05-22T00:09:28.266Z,7.28
2019-05-22T00:09:33.487Z,9.65
2019-05-22T00:09:38.238Z,9.59
2019-05-22T00:09:43.246Z,11.12
2019-05-22T00:09:48.240Z,13.03
2019-05-22T00:09:53.242Z,13.66
2019-05-22T00:09:58.242Z,14.73
2019-05-22T00:10:03.492Z,12.09
2019-05-22T00:10:08.243Z,15.77
2019-05-22T00:10:13.244Z,14.42
2019-05-22T00:10:18.307Z,13.28
2019-05-22T00:10:23.248Z,14.75
2019-05-22T00:10:28.251Z,13.88
2019-05-22T00:10:33.258Z,12.53
2019-05-22T00:10:38.253Z,13.42
2019-05-22T00:10:43.251Z,16.50
2019-05-22T00:10:48.253Z,16.79
2019-05-22T00:10:53.258Z,14.76
2019-05-22T00:10:58.281Z,15.24
2019-05-22T00:11:03.266Z,15.34
2019-05-22T00:11:08.257Z,13.99
2019-05-22T00:11:13.257Z,14.26
2019-05-22T00:11:18.258Z,12.95
2019-05-22T00:11:23.261Z,11.50
2019-05-22T00:11:28.260Z,12.79
2019-05-22T00:11:33.862Z,13.30
2019-05-22T00:11:38.263Z,16.46
2019-05-22T00:11:43.262Z,17.49
2019-05-22T00:11:48.265Z,17.83
2019-05-22T00:11:53.265Z,16.76
2019-05-22T00:11:58.269Z,15.32
2019-05-22T00:12:03.267Z,16.40
2019-05-22T00:12:08.268Z,14.23
2019-05-22T00:12:13.269Z,11.35
2019-05-22T00:12:18.270Z,10.68
2019-05-22T00:12:23.271Z,11.85
2019-05-22T00:12:28.272Z,12.38
2019-05-22T00:12:34.144Z,12.04
2019-05-22T00:12:38.274Z,13.05
2019-05-22T00:12:43.279Z,15.25
2019-05-22T00:12:48.276Z,15.34
2019-05-22T00:12:53.276Z,16.01
2019-05-22T00:12:58.287Z,14.35
2019-05-22T00:13:03.280Z,16.05
2019-05-22T00:13:08.286Z,14.94
2019-05-22T00:13:13.287Z,12.82
2019-05-22T00:13:18.471Z,10.22
2019-05-22T00:13:23.282Z,12.37
2019-05-22T00:13:28.285Z,11.98
2019-05-22T00:13:33.285Z,10.76
2019-05-22T00:13:38.286Z,9.09
2019-05-22T00:13:43.489Z,7.82
2019-05-22T00:13:48.631Z,9.07
2019-05-22T00:14:03.688Z,10.21
2019-05-22T00:14:08.689Z,10.61
2019-05-22T00:14:13.690Z,10.74
2019-05-22T00:14:18.952Z,10.78
2019-05-22T00:14:23.691Z,12.55
2019-05-22T00:14:28.693Z,14.16
2019-05-22T00:14:33.693Z,14.03
2019-05-22T00:14:38.694Z,13.24
2019-05-22T00:14:43.720Z,12.06
2019-05-22T00:14:48.696Z,9.92
2019-05-22T00:14:53.697Z,10.22
2019-05-22T00:14:58.698Z,8.85
2019-05-22T00:15:03.713Z,9.33
2019-05-22T00:15:08.719Z,10.32
2019-05-22T00:15:13.701Z,12.19
2019-05-22T00:15:18.706Z,10.68
2019-05-22T00:15:23.704Z,9.38
2019-05-22T00:15:29.219Z,11.63
2019-05-22T00:15:33.707Z,13.95
2019-05-22T00:15:38.707Z,13.42
2019-05-22T00:15:43.709Z,12.84
2019-05-22T00:15:48.710Z,12.13
2019-05-22T00:15:53.710Z,13.71
2019-05-22T00:15:58.744Z,18.93
2019-05-22T00:16:03.712Z,20.06
2019-05-22T00:16:08.712Z,18.68
2019-05-22T00:16:13.715Z,16.46
2019-05-22T00:16:18.715Z,16.17
2019-05-22T00:16:23.715Z,15.70
2019-05-22T00:16:28.718Z,16.53
2019-05-22T00:16:33.717Z,14.43
2019-05-22T00:16:38.719Z,15.54
2019-05-22T00:16:43.722Z,14.05
2019-05-22T00:16:48.720Z,12.59
2019-05-22T00:16:53.722Z,13.23
2019-05-22T00:16:58.761Z,14.94
2019-05-22T00:17:03.724Z,12.82
2019-05-22T00:17:08.724Z,13.88
2019-05-22T00:17:13.726Z,11.39
2019-05-22T00:17:18.731Z,9.75
2019-05-22T00:17:23.731Z,10.00
2019-05-22T00:17:28.730Z,11.66
2019-05-22T00:17:33.740Z,11.08
2019-05-22T00:17:38.730Z,8.77
2019-05-22T00:17:43.891Z,10.13
2019-05-22T00:17:48.732Z,13.89
2019-05-22T00:17:53.734Z,15.36
2019-05-22T00:17:58.735Z,14.34
2019-05-22T00:18:03.735Z,15.79
2019-05-22T00:18:09.031Z,15.57
2019-05-22T00:18:13.738Z,13.03
2019-05-22T00:18:18.738Z,13.29
2019-05-22T00:18:23.795Z,12.28
2019-05-22T00:18:28.743Z,9.16
2019-05-22T00:18:33.741Z,10.26
2019-05-22T00:18:38.744Z,13.87
2019-05-22T00:18:43.743Z,12.47
2019-05-22T00:18:48.743Z,11.35
2019-05-22T00:18:53.744Z,11.27
2019-05-22T00:18:58.746Z,10.96
2019-05-22T00:19:03.749Z,10.85
2019-05-22T00:19:08.751Z,12.11
2019-05-22T00:19:13.749Z,14.95
2019-05-22T00:19:19.075Z,16.17
2019-05-22T00:19:23.834Z,14.26
2019-05-22T00:19:28.752Z,13.23
2019-05-22T00:19:33.761Z,13.30
2019-05-22T00:19:38.754Z,14.76
2019-05-22T00:19:44.379Z,14.81
2019-05-22T00:19:48.755Z,16.96
2019-05-22T00:19:53.757Z,15.53
2019-05-22T00:19:58.757Z,16.18
2019-05-22T00:20:03.758Z,14.52
2019-05-22T00:20:08.762Z,12.31
2019-05-22T00:20:13.761Z,9.54
2019-05-22T00:20:18.760Z,9.26
2019-05-22T00:20:23.763Z,10.30
2019-05-22T00:20:28.763Z,11.93
2019-05-22T00:20:33.763Z,14.31
2019-05-22T00:20:38.773Z,14.37
2019-05-22T00:20:43.766Z,14.39
2019-05-22T00:20:48.767Z,10.80
2019-05-22T00:20:53.770Z,10.14
2019-05-22T00:20:59.040Z,11.88
2019-05-22T00:21:03.773Z,13.57
2019-05-22T00:21:08.771Z,12.00
2019-05-22T00:21:13.772Z,12.49
2019-05-22T00:21:18.776Z,10.78
2019-05-22T00:21:23.774Z,12.92
2019-05-22T00:21:28.778Z,13.91
2019-05-22T00:21:33.775Z,12.19
2019-05-22T00:21:38.778Z,9.13
2019-05-22T00:21:43.789Z,10.25
2019-05-22T00:21:48.779Z,8.96
2019-05-22T00:21:53.781Z,7.31
2019-05-22T00:21:59.000Z,7.24
2019-05-22T00:22:03.781Z,8.51
2019-05-22T00:22:08.790Z,12.53
2019-05-22T00:22:13.784Z,14.15
2019-05-22T00:22:18.784Z,16.74
2019-05-22T00:22:23.787Z,15.83
2019-05-22T00:22:28.787Z,14.50
2019-05-22T00:22:33.788Z,14.43
2019-05-22T00:22:38.796Z,15.13
2019-05-22T00:22:43.790Z,15.30
2019-05-22T00:22:48.834Z,13.40
2019-05-22T00:22:53.792Z,11.65
2019-05-22T00:22:58.908Z,15.68
2019-05-22T00:23:03.794Z,17.90
2019-05-22T00:23:08.947Z,17.39
2019-05-22T00:23:13.796Z,17.34
2019-05-22T00:23:18.796Z,19.54
2019-05-22T00:23:24.181Z,20.21
2019-05-22T00:23:28.798Z,19.85
2019-05-22T00:23:33.799Z,15.72
2019-05-22T00:23:38.857Z,17.25
2019-05-22T00:23:43.802Z,17.39
2019-05-22T00:23:49.163Z,17.37
2019-05-22T00:23:53.804Z,16.39
2019-05-22T00:23:58.807Z,16.38
2019-05-22T00:24:03.805Z,20.17
2019-05-22T00:24:08.806Z,20.47
2019-05-22T00:24:13.807Z,19.53
2019-05-22T00:24:18.810Z,22.77
2019-05-22T00:24:23.810Z,21.26
2019-05-22T00:24:28.812Z,20.36
2019-05-22T00:24:33.822Z,19.90
2019-05-22T00:24:38.821Z,18.25
2019-05-22T00:24:43.965Z,17.73
2019-05-22T00:24:48.815Z,17.91
2019-05-22T00:24:53.815Z,17.97
2019-05-22T00:24:59.053Z,15.57
2019-05-22T00:25:03.890Z,14.41
2019-05-22T00:25:09.049Z,14.70
2019-05-22T00:25:14.199Z,14.50
2019-05-22T00:25:18.819Z,14.43
2019-05-22T00:25:23.820Z,15.45
2019-05-22T00:25:28.822Z,14.74
2019-05-22T00:25:33.822Z,14.51
2019-05-22T00:25:38.824Z,16.10
2019-05-22T00:25:43.827Z,16.34
2019-05-22T00:25:48.826Z,15.76
2019-05-22T00:25:53.827Z,14.84
2019-05-22T00:25:58.829Z,15.38
2019-05-22T00:26:03.828Z,17.14
2019-05-22T00:26:08.829Z,16.72
2019-05-22T00:26:13.830Z,15.16
2019-05-22T00:26:18.830Z,12.89
2019-05-22T00:26:23.844Z,12.21
2019-05-22T00:26:28.835Z,12.09
2019-05-22T00:26:33.835Z,11.94
2019-05-22T00:26:38.902Z,15.44
2019-05-22T00:26:43.843Z,16.33
2019-05-22T00:26:48.842Z,16.16
2019-05-22T00:26:53.843Z,17.10
2019-05-22T00:26:58.842Z,16.58
2019-05-22T00:27:03.868Z,16.35
2019-05-22T00:27:08.936Z,15.04
2019-05-22T00:27:13.842Z,15.91
2019-05-22T00:27:18.844Z,15.19
2019-05-22T00:27:23.850Z,14.66
2019-05-22T00:27:29.276Z,13.76
2019-05-22T00:27:33.848Z,12.72
2019-05-22T00:27:38.862Z,11.43
2019-05-22T00:27:43.849Z,11.01
2019-05-22T00:27:48.854Z,10.87
2019-05-22T00:27:53.852Z,12.00
2019-05-22T00:27:58.853Z,13.25
2019-05-22T00:28:03.886Z,14.02
2019-05-22T00:28:08.854Z,16.70
2019-05-22T00:28:13.855Z,15.15
2019-05-22T00:28:18.855Z,15.22
2019-05-22T00:28:23.856Z,15.60
2019-05-22T00:28:28.857Z,16.79
2019-05-22T00:28:33.923Z,16.88
2019-05-22T00:28:38.860Z,17.63
2019-05-22T00:28:43.926Z,17.16
2019-05-22T00:28:48.862Z,14.58
2019-05-22T00:28:53.861Z,12.41
2019-05-22T00:28:58.865Z,9.94
2019-05-22T00:29:03.865Z,8.56
2019-05-22T00:29:08.887Z,8.94
2019-05-22T00:29:13.894Z,10.19
2019-05-22T00:29:18.893Z,10.18
2019-05-22T00:29:23.896Z,10.60
2019-05-22T00:29:28.893Z,11.31
2019-05-22T00:29:33.892Z,13.39
2019-05-22T00:29:38.893Z,12.66
2019-05-22T00:29:44.040Z,13.89
2019-05-22T00:29:48.895Z,15.93
2019-05-22T00:29:53.895Z,14.90
2019-05-22T00:29:58.915Z,15.28
2019-05-22T00:30:03.902Z,15.52
2019-05-22T00:30:08.899Z,13.73
2019-05-22T00:30:13.952Z,14.18
2019-05-22T00:30:18.901Z,15.62
2019-05-22T00:30:23.902Z,16.65
2019-05-22T00:30:28.903Z,15.43
2019-05-22T00:30:33.904Z,16.49
2019-05-22T00:30:38.925Z,15.84
2019-05-22T00:30:43.905Z,15.82
2019-05-22T00:30:48.908Z,14.86
2019-05-22T00:30:53.908Z,15.27
2019-05-22T00:30:58.908Z,14.22
2019-05-22T00:31:03.909Z,13.40
2019-05-22T00:31:08.910Z,17.79
2019-05-22T00:31:13.911Z,18.33
2019-05-22T00:31:19.033Z,15.69
2019-05-22T00:31:23.913Z,13.53
2019-05-22T00:31:28.916Z,16.24
2019-05-22T00:31:33.915Z,18.14
2019-05-22T00:31:38.951Z,18.92
2019-05-22T00:31:44.269Z,20.00
2019-05-22T00:31:49.122Z,18.95
2019-05-22T00:31:53.918Z,17.59
2019-05-22T00:31:58.923Z,17.57
2019-05-22T00:32:03.922Z,20.34
2019-05-22T00:32:08.924Z,20.76
2019-05-22T00:32:14.153Z,20.66
2019-05-22T00:32:18.925Z,20.46
2019-05-22T00:32:23.927Z,19.93
2019-05-22T00:32:28.946Z,17.60
2019-05-22T00:32:33.927Z,17.15
2019-05-22T00:32:38.930Z,17.43
2019-05-22T00:32:43.930Z,18.68
2019-05-22T00:32:48.930Z,15.80
2019-05-22T00:32:53.931Z,19.41
2019-05-22T00:32:58.933Z,18.46
2019-05-22T00:33:03.933Z,18.15
2019-05-22T00:33:08.934Z,19.35
2019-05-22T00:33:13.936Z,18.15
2019-05-22T00:33:18.938Z,16.46
2019-05-22T00:33:23.937Z,16.83
2019-05-22T00:33:28.937Z,17.51
2019-05-22T00:33:33.940Z,20.26
2019-05-22T00:33:38.940Z,16.98
2019-05-22T00:33:43.960Z,12.83
2019-05-22T00:33:48.942Z,14.60
2019-05-22T00:33:53.942Z,14.13
2019-05-22T00:33:58.945Z,16.79
2019-05-22T00:34:03.952Z,15.85
2019-05-22T00:34:08.947Z,16.63
2019-05-22T00:34:13.947Z,15.69
2019-05-22T00:34:18.949Z,16.67
2019-05-22T00:34:23.948Z,15.81
2019-05-22T00:34:29.168Z,15.58
2019-05-22T00:34:33.951Z,16.84
2019-05-22T00:34:38.953Z,14.62
2019-05-22T00:34:43.953Z,16.89
2019-05-22T00:34:48.954Z,16.92
2019-05-22T00:34:53.956Z,15.22
2019-05-22T00:34:58.956Z,17.15
2019-05-22T00:35:03.959Z,17.00
2019-05-22T00:35:08.957Z,17.38
2019-05-22T00:35:13.963Z,18.74
2019-05-22T00:35:19.023Z,18.24
2019-05-22T00:35:23.968Z,17.62
2019-05-22T00:35:28.961Z,16.47
2019-05-22T00:35:33.962Z,16.17
2019-05-22T00:35:38.964Z,17.40
2019-05-22T00:35:43.966Z,17.80
2019-05-22T00:35:48.965Z,16.90
2019-05-22T00:35:53.966Z,15.97
2019-05-22T00:35:58.967Z,14.92
2019-05-22T00:36:03.970Z,15.87
2019-05-22T00:36:09.082Z,20.30
2019-05-22T00:36:14.102Z,23.19
2019-05-22T00:36:19.119Z,25.26
2019-05-22T00:36:24.227Z,25.51
2019-05-22T00:36:28.978Z,27.00
2019-05-22T00:36:33.973Z,19.49
2019-05-22T00:36:38.975Z,16.82
2019-05-22T00:36:43.976Z,15.19
2019-05-22T00:36:48.976Z,14.57
2019-05-22T00:36:53.981Z,15.75
2019-05-22T00:36:58.978Z,17.26
2019-05-22T00:37:03.984Z,15.34
2019-05-22T00:37:09.242Z,17.13
2019-05-22T00:37:13.982Z,14.72
2019-05-22T00:37:18.983Z,14.50
2019-05-22T00:37:23.988Z,14.43
2019-05-22T00:37:28.984Z,13.37
2019-05-22T00:37:33.985Z,13.71
2019-05-22T00:37:38.988Z,16.10
2019-05-22T00:37:43.994Z,17.67
2019-05-22T00:37:48.990Z,16.86
2019-05-22T00:37:53.989Z,19.84
2019-05-22T00:37:59.309Z,19.27
2019-05-22T00:38:03.996Z,16.29
2019-05-22T00:38:08.993Z,15.02
2019-05-22T00:38:13.994Z,18.85
2019-05-22T00:38:19.000Z,18.28
2019-05-22T00:38:23.999Z,16.33
2019-05-22T00:38:28.997Z,17.88
2019-05-22T00:38:34.000Z,18.98
2019-05-22T00:38:38.998Z,20.16
2019-05-22T00:38:44.000Z,19.54
2019-05-22T00:38:49.015Z,18.50
2019-05-22T00:38:54.077Z,18.17
2019-05-22T00:38:59.006Z,18.05
2019-05-22T00:39:04.015Z,18.48
2019-05-22T00:39:09.010Z,17.70
2019-05-22T00:39:14.027Z,17.90
2019-05-22T00:39:19.017Z,17.14
2019-05-22T00:39:24.043Z,18.44
2019-05-22T00:39:29.017Z,19.69
2019-05-22T00:39:34.014Z,20.98
2019-05-22T00:39:39.014Z,19.64
2019-05-22T00:39:44.012Z,20.66
2019-05-22T00:39:49.013Z,20.54
2019-05-22T00:39:54.019Z,21.25
2019-05-22T00:39:59.019Z,19.01
2019-05-22T00:40:04.101Z,15.91
2019-05-22T00:40:09.021Z,14.32
2019-05-22T00:40:14.018Z,16.13
2019-05-22T00:40:19.018Z,15.26
2019-05-22T00:40:24.021Z,15.40
2019-05-22T00:40:29.025Z,16.85
2019-05-22T00:40:34.021Z,17.92
2019-05-22T00:40:39.021Z,20.76
2019-05-22T00:40:44.023Z,19.57
2019-05-22T00:40:49.025Z,16.76
2019-05-22T00:40:54.025Z,16.47
2019-05-22T00:40:59.025Z,15.74
2019-05-22T00:41:04.030Z,13.54
2019-05-22T00:41:09.033Z,13.82
2019-05-22T00:41:14.029Z,14.93
2019-05-22T00:41:19.039Z,16.99
2019-05-22T00:41:24.034Z,17.38
2019-05-22T00:41:29.031Z,17.08
2019-05-22T00:41:34.032Z,17.03
2019-05-22T00:41:39.033Z,16.39
2019-05-22T00:41:44.034Z,13.29
2019-05-22T00:41:49.035Z,11.30
2019-05-22T00:41:54.037Z,13.38
2019-05-22T00:41:59.038Z,14.07
2019-05-22T00:42:04.245Z,13.17
2019-05-22T00:42:09.041Z,14.00
2019-05-22T00:42:14.041Z,13.55
2019-05-22T00:42:19.043Z,11.70
2019-05-22T00:42:24.043Z,13.52
2019-05-22T00:42:29.043Z,12.35
2019-05-22T00:42:34.045Z,12.03
2019-05-22T00:42:39.045Z,13.62
2019-05-22T00:42:44.047Z,14.15
2019-05-22T00:42:49.053Z,13.37
2019-05-22T00:42:54.048Z,14.06
2019-05-22T00:42:59.050Z,13.83
2019-05-22T00:43:04.051Z,11.79
2019-05-22T00:43:09.051Z,12.42
2019-05-22T00:43:14.220Z,11.70
2019-05-22T00:43:19.055Z,11.81
2019-05-22T00:43:24.054Z,14.85
2019-05-22T00:43:29.056Z,16.97
2019-05-22T00:43:34.056Z,18.03
2019-05-22T00:43:39.058Z,20.14
2019-05-22T00:43:44.228Z,21.12
2019-05-22T00:43:49.060Z,20.87
2019-05-22T00:43:54.061Z,18.22
2019-05-22T00:43:59.273Z,16.41
2019-05-22T00:44:04.062Z,17.90
2019-05-22T00:44:09.063Z,18.26
2019-05-22T00:44:14.664Z,17.37
2019-05-22T00:44:19.065Z,15.37
2019-05-22T00:44:24.066Z,13.85
2019-05-22T00:44:29.067Z,14.22
2019-05-22T00:44:34.068Z,12.22
2019-05-22T00:44:39.069Z,13.68
2019-05-22T00:44:44.070Z,14.74
2019-05-22T00:44:49.072Z,13.22
2019-05-22T00:44:54.611Z,14.73
2019-05-22T00:44:59.073Z,16.93
2019-05-22T00:45:04.078Z,16.24
2019-05-22T00:45:09.075Z,15.37
2019-05-22T00:45:14.082Z,14.72
2019-05-22T00:45:19.080Z,14.50
2019-05-22T00:45:24.079Z,12.68
2019-05-22T00:45:29.079Z,13.84
2019-05-22T00:45:34.081Z,12.05
2019-05-22T00:45:39.080Z,15.76
2019-05-22T00:45:44.084Z,17.26
2019-05-22T00:45:49.083Z,15.06
2019-05-22T00:45:54.088Z,14.62
2019-05-22T00:45:59.089Z,14.01
2019-05-22T00:46:04.086Z,13.55
2019-05-22T00:46:09.089Z,13.46
2019-05-22T00:46:14.088Z,15.53
2019-05-22T00:46:19.093Z,20.44
2019-05-22T00:46:24.102Z,17.34
2019-05-22T00:46:29.091Z,16.75
2019-05-22T00:46:34.092Z,17.53
2019-05-22T00:46:39.093Z,17.18
2019-05-22T00:46:44.094Z,20.49
2019-05-22T00:46:49.095Z,21.06
2019-05-22T00:46:54.095Z,19.58
2019-05-22T00:46:59.110Z,18.98
2019-05-22T00:47:04.098Z,21.11
2019-05-22T00:47:09.097Z,20.72
2019-05-22T00:47:14.161Z,23.53
2019-05-22T00:47:19.100Z,22.90
2019-05-22T00:47:24.102Z,20.62
2019-05-22T00:47:29.104Z,20.62
2019-05-22T00:47:34.103Z,19.61
2019-05-22T00:47:39.108Z,17.40
2019-05-22T00:47:44.105Z,20.28
2019-05-22T00:47:49.105Z,20.74
2019-05-22T00:47:54.107Z,19.99
2019-05-22T00:47:59.107Z,22.83
2019-05-22T00:48:04.109Z,20.17
2019-05-22T00:48:09.256Z,25.01
2019-05-22T00:48:14.110Z,24.42
2019-05-22T00:48:19.111Z,21.80
2019-05-22T00:48:24.768Z,21.37
2019-05-22T00:48:29.121Z,20.14
2019-05-22T00:48:34.115Z,17.66
2019-05-22T00:48:39.117Z,18.36
2019-05-22T00:48:44.206Z,20.11
2019-05-22T00:48:49.119Z,20.39
2019-05-22T00:48:54.118Z,19.45
2019-05-22T00:48:59.119Z,20.32
2019-05-22T00:49:04.125Z,19.88
2019-05-22T00:49:09.129Z,19.28
2019-05-22T00:49:14.551Z,20.26
2019-05-22T00:49:19.124Z,19.41
2019-05-22T00:49:24.125Z,19.29
2019-05-22T00:49:29.127Z,17.85
2019-05-22T00:49:34.127Z,14.95
2019-05-22T00:49:39.132Z,18.46
2019-05-22T00:49:44.386Z,18.15
2019-05-22T00:49:49.132Z,20.09
2019-05-22T00:49:54.133Z,17.94
2019-05-22T00:49:59.132Z,16.69
2019-05-22T00:50:04.138Z,16.70
2019-05-22T00:50:09.134Z,16.85
2019-05-22T00:50:14.146Z,18.37
2019-05-22T00:50:19.152Z,19.82
2019-05-22T00:50:24.499Z,16.93
2019-05-22T00:50:29.151Z,16.99
2019-05-22T00:50:34.149Z,15.54
2019-05-22T00:50:39.155Z,15.90
2019-05-22T00:50:44.151Z,17.77
2019-05-22T00:50:49.155Z,17.56
2019-05-22T00:50:54.154Z,16.56
2019-05-22T00:51:00.134Z,16.51
2019-05-22T00:51:04.155Z,17.57
2019-05-22T00:51:09.157Z,19.45
2019-05-22T00:51:14.160Z,20.90
2019-05-22T00:51:19.159Z,20.24
2019-05-22T00:51:24.159Z,15.89
2019-05-22T00:51:29.160Z,13.19
2019-05-22T00:51:34.495Z,15.85
2019-05-22T00:51:39.163Z,17.29
2019-05-22T00:51:44.222Z,19.15
2019-05-22T00:51:49.170Z,18.38
2019-05-22T00:51:54.165Z,15.39
2019-05-22T00:51:59.167Z,17.06
2019-05-22T00:52:04.169Z,17.99
2019-05-22T00:52:09.168Z,18.00
2019-05-22T00:52:14.175Z,16.33
2019-05-22T00:52:19.174Z,15.03
2019-05-22T00:52:24.327Z,14.61
2019-05-22T00:52:29.180Z,15.76
2019-05-22T00:52:34.174Z,16.81
2019-05-22T00:52:39.174Z,16.95
2019-05-22T00:52:44.174Z,16.93
2019-05-22T00:52:49.176Z,13.93
2019-05-22T00:52:54.177Z,13.67
2019-05-22T00:52:59.178Z,12.87
2019-05-22T00:53:04.203Z,9.81
2019-05-22T00:53:09.179Z,10.39
2019-05-22T00:53:14.183Z,11.39
2019-05-22T00:53:19.184Z,16.46
2019-05-22T00:53:24.185Z,16.41
2019-05-22T00:53:29.187Z,13.97
2019-05-22T00:53:34.185Z,12.13
2019-05-22T00:53:39.189Z,12.53
2019-05-22T00:53:44.191Z,14.36
2019-05-22T00:53:49.192Z,15.40
2019-05-22T00:53:54.190Z,15.39
2019-05-22T00:53:59.192Z,16.78
2019-05-22T00:54:04.190Z,18.06
2019-05-22T00:54:09.191Z,16.36
2019-05-22T00:54:14.193Z,17.17
2019-05-22T00:54:19.193Z,18.97
2019-05-22T00:54:24.195Z,18.32
2019-05-22T00:54:29.242Z,18.10
2019-05-22T00:54:34.196Z,16.44
2019-05-22T00:54:39.210Z,17.19
2019-05-22T00:54:44.203Z,18.10
2019-05-22T00:54:49.200Z,16.19
2019-05-22T00:54:54.284Z,17.41
2019-05-22T00:54:59.221Z,15.68
2019-05-22T00:55:04.203Z,14.82
2019-05-22T00:55:09.204Z,16.66
2019-05-22T00:55:14.204Z,16.27
2019-05-22T00:55:19.205Z,14.72
2019-05-22T00:55:24.206Z,15.84
2019-05-22T00:55:29.207Z,14.87
2019-05-22T00:55:34.208Z,14.55
2019-05-22T00:55:39.211Z,12.69
2019-05-22T00:55:44.210Z,10.84
2019-05-22T00:55:49.616Z,12.94
2019-05-22T00:55:54.214Z,13.92
2019-05-22T00:55:59.213Z,14.96
2019-05-22T00:56:04.223Z,17.58
2019-05-22T00:56:09.216Z,17.23
2019-05-22T00:56:14.288Z,13.63
2019-05-22T00:56:19.217Z,14.15
2019-05-22T00:56:24.220Z,14.32
2019-05-22T00:56:29.221Z,14.37
2019-05-22T00:56:34.220Z,11.97
2019-05-22T00:56:39.221Z,11.90
2019-05-22T00:56:44.224Z,14.62
2019-05-22T00:56:49.224Z,13.43
2019-05-22T00:56:54.224Z,14.66
2019-05-22T00:56:59.225Z,15.57
2019-05-22T00:57:04.227Z,19.33
2019-05-22T00:57:09.238Z,16.68
2019-05-22T00:57:14.228Z,13.39
2019-05-22T00:57:19.232Z,15.47
2019-05-22T00:57:24.230Z,17.08
2019-05-22T00:57:29.230Z,17.70
2019-05-22T00:57:34.232Z,16.61
2019-05-22T00:57:39.235Z,14.29
2019-05-22T00:57:44.234Z,14.37
2019-05-22T00:57:49.236Z,13.63
2019-05-22T00:57:54.370Z,14.15
2019-05-22T00:57:59.275Z,16.50
2019-05-22T00:58:04.237Z,15.75
2019-05-22T00:58:09.238Z,13.72
2019-05-22T00:58:14.241Z,15.47
2019-05-22T00:58:19.240Z,15.42
2019-05-22T00:58:24.242Z,15.37
2019-05-22T00:58:29.241Z,13.42
2019-05-22T00:58:34.243Z,13.78
2019-05-22T00:58:39.244Z,14.20
2019-05-22T00:58:44.246Z,16.75
2019-05-22T00:58:49.245Z,16.87
2019-05-22T00:58:54.250Z,17.63
2019-05-22T00:58:59.249Z,17.22
2019-05-22T00:59:04.249Z,15.32
2019-05-22T00:59:09.250Z,13.52
2019-05-22T00:59:14.251Z,13.45
2019-05-22T00:59:19.252Z,13.72
2019-05-22T00:59:24.253Z,16.51
2019-05-22T00:59:29.254Z,17.51
2019-05-22T00:59:34.426Z,20.54
2019-05-22T00:59:39.258Z,18.67
2019-05-22T00:59:44.257Z,18.22
2019-05-22T00:59:49.259Z,19.83
2019-05-22T00:59:54.258Z,21.48
2019-05-22T00:59:59.260Z,20.84
2019-05-22T01:00:04.263Z,21.35
2019-05-22T01:00:09.266Z,17.34
2019-05-22T01:00:14.264Z,17.78
2019-05-22T01:00:19.274Z,16.17
2019-05-22T01:00:24.265Z,15.74
2019-05-22T01:00:29.268Z,13.71
2019-05-22T01:00:34.268Z,14.47
2019-05-22T01:00:39.268Z,13.76
2019-05-22T01:00:44.275Z,14.48
2019-05-22T01:00:49.269Z,16.76
2019-05-22T01:00:54.276Z,19.55
2019-05-22T01:00:59.272Z,21.76
2019-05-22T01:01:04.285Z,21.65
2019-05-22T01:01:09.275Z,18.20
2019-05-22T01:01:14.274Z,17.34
2019-05-22T01:01:19.275Z,18.42
2019-05-22T01:01:24.852Z,19.89
2019-05-22T01:01:29.277Z,19.74
2019-05-22T01:01:34.278Z,19.44
2019-05-22T01:01:39.279Z,16.72
2019-05-22T01:01:44.286Z,19.16
2019-05-22T01:01:49.282Z,19.76
2019-05-22T01:01:54.289Z,21.63
2019-05-22T01:01:59.283Z,20.61
2019-05-22T01:02:04.284Z,19.68
2019-05-22T01:02:09.285Z,15.97
2019-05-22T01:02:14.287Z,18.80
2019-05-22T01:02:19.290Z,19.28
2019-05-22T01:02:24.294Z,18.61
2019-05-22T01:02:29.899Z,15.78
2019-05-22T01:02:34.776Z,14.91
2019-05-22T01:02:39.292Z,16.69
2019-05-22T01:02:44.372Z,20.73
2019-05-22T01:02:49.516Z,22.61
2019-05-22T01:02:54.295Z,20.89
2019-05-22T01:02:59.295Z,22.09
2019-05-22T01:03:04.297Z,22.88
2019-05-22T01:03:09.297Z,20.84
2019-05-22T01:03:14.299Z,19.77
2019-05-22T01:03:19.299Z,18.58
2019-05-22T01:03:24.300Z,17.47
2019-05-22T01:03:29.301Z,17.11
2019-05-22T01:03:34.302Z,13.88
2019-05-22T01:03:39.303Z,15.53
2019-05-22T01:03:44.303Z,14.77
2019-05-22T01:03:49.305Z,14.52
2019-05-22T01:03:54.444Z,14.44
2019-05-22T01:03:59.307Z,15.08
2019-05-22T01:04:04.307Z,19.37
2019-05-22T01:04:09.323Z,18.03
2019-05-22T01:04:14.310Z,18.49
2019-05-22T01:04:19.311Z,20.20
2019-05-22T01:04:24.312Z,17.42
2019-05-22T01:04:29.314Z,14.81
2019-05-22T01:04:34.652Z,13.24
2019-05-22T01:04:39.316Z,13.15